Time;durP1;ratioP1;P1;durP2;ratioP2;P2;SDS_P1;SDS_P2;PMS_P1;PMS_P2;Temp;Humidity;BMP_temperature;BMP_pressure;BME280_temperature;BME280_humidity;BME280_pressure;Samples;Min_cycle;Max_cycle;Signal;HPM_P1;HPM_P2
2022/04/12 00:00:44;;;;;;;8.77;7.93;;;7.10;99.90;;;;;;5088975;28;20208;-81
2022/04/12 00:03:11;;;;;;;8.53;7.83;;;7.10;99.90;;;;;;5097043;28;20195;-80
2022/04/12 00:05:40;;;;;;;6.37;4.70;;;7.10;99.90;;;;;;5093177;28;20209;-81
2022/04/12 00:08:08;;;;;;;8.37;7.73;;;7.10;99.90;;;;;;5092812;28;20632;-81
2022/04/12 00:10:35;;;;;;;9.37;8.00;;;7.10;99.90;;;;;;5111565;28;20216;-80
2022/04/12 00:13:04;;;;;;;8.67;7.87;;;7.00;99.90;;;;;;5095838;28;20223;-80
2022/04/12 00:15:31;;;;;;;8.47;7.73;;;6.90;99.90;;;;;;5097702;28;20199;-81
2022/04/12 00:20:44;;;;;;;8.33;7.63;;;6.80;99.90;;;;;;5091920;28;20210;-82
2022/04/12 00:23:12;;;;;;;8.67;7.90;;;6.70;99.90;;;;;;5091746;28;20810;-81
2022/04/12 00:25:39;;;;;;;8.47;7.77;;;6.70;99.90;;;;;;5096542;28;20674;-81
2022/04/12 00:28:06;;;;;;;8.43;7.70;;;6.60;99.90;;;;;;5100037;28;20201;-81
2022/04/12 00:30:33;;;;;;;10.97;8.60;;;6.60;99.90;;;;;;5095357;28;20641;-80
2022/04/12 00:33:02;;;;;;;9.00;8.10;;;6.60;99.90;;;;;;5097336;28;20204;-80
2022/04/12 00:35:29;;;;;;;8.77;7.97;;;6.60;99.90;;;;;;5099058;28;20230;-80
2022/04/12 00:37:56;;;;;;;9.53;8.53;;;6.60;99.90;;;;;;5093906;28;20199;-82
2022/04/12 00:40:25;;;;;;;8.60;7.83;;;6.60;99.90;;;;;;5099038;28;20192;-81
2022/04/12 00:42:54;;;;;;;8.33;7.50;;;6.60;99.90;;;;;;5093263;28;20190;-80
2022/04/12 00:45:22;;;;;;;8.17;7.40;;;6.60;99.90;;;;;;5099419;28;20251;-82
2022/04/12 00:47:49;;;;;;;9.17;7.93;;;6.60;99.90;;;;;;5099373;28;20207;-81
2022/04/12 00:50:18;;;;;;;9.00;8.20;;;6.60;99.90;;;;;;5099212;28;20268;-79
2022/04/12 00:52:49;;;;;;;8.53;7.77;;;6.60;99.90;;;;;;5092915;28;20309;-81
2022/04/12 00:55:16;;;;;;;7.73;7.03;;;6.50;99.90;;;;;;5096229;28;20291;-81
2022/04/12 00:57:43;;;;;;;8.70;7.90;;;6.60;99.90;;;;;;5094418;28;20198;-81
2022/04/12 01:00:13;;;;;;;7.90;7.20;;;6.50;99.90;;;;;;5095794;28;20195;-81
2022/04/12 01:02:40;;;;;;;7.97;7.27;;;6.50;99.90;;;;;;5099048;28;20242;-81
2022/04/12 01:05:08;;;;;;;8.13;7.33;;;6.50;99.90;;;;;;5099306;28;20209;-80
2022/04/12 01:07:38;;;;;;;7.90;7.20;;;6.50;99.90;;;;;;5098723;28;20194;-80
2022/04/12 01:10:05;;;;;;;8.13;7.43;;;6.40;99.90;;;;;;5095239;28;20218;-81
2022/04/12 01:12:38;;;;;;;8.33;7.53;;;6.40;99.90;;;;;;5097243;28;20287;-80
2022/04/12 01:15:13;;;;;;;8.47;7.67;;;6.30;99.90;;;;;;5092643;28;20248;-83
2022/04/12 01:17:40;;;;;;;8.97;8.07;;;6.30;99.90;;;;;;5108010;28;20198;-79
2022/04/12 01:20:09;;;;;;;8.87;8.07;;;6.30;99.90;;;;;;5098503;28;20263;-80
2022/04/12 01:22:45;;;;;;;8.80;8.00;;;6.30;99.90;;;;;;5097907;28;20241;-81
2022/04/12 01:25:13;;;;;;;9.47;8.57;;;6.20;99.90;;;;;;5098541;28;20198;-81
2022/04/12 01:27:41;;;;;;;8.40;7.60;;;6.20;99.90;;;;;;5098189;28;20253;-80
2022/04/12 01:30:09;;;;;;;8.67;7.97;;;6.10;99.90;;;;;;5098376;28;20243;-81
2022/04/12 01:32:36;;;;;;;9.67;8.77;;;6.10;99.90;;;;;;5097111;28;20214;-82
2022/04/12 01:35:03;;;;;;;8.40;7.70;;;6.00;99.90;;;;;;5090841;28;20286;-83
2022/04/12 01:37:30;;;;;;;9.17;8.37;;;6.00;99.90;;;;;;5097825;28;20285;-81
2022/04/12 01:39:57;;;;;;;9.57;8.63;;;6.00;99.90;;;;;;5099343;28;20202;-81
2022/04/12 01:42:26;;;;;;;9.30;8.37;;;6.00;99.90;;;;;;5090104;28;20567;-81
2022/04/12 01:44:53;;;;;;;9.60;8.80;;;6.00;99.90;;;;;;5097487;28;20216;-82
2022/04/12 01:47:20;;;;;;;8.60;7.90;;;5.90;99.90;;;;;;5096571;28;20289;-81
2022/04/12 01:49:47;;;;;;;9.83;8.93;;;6.00;99.90;;;;;;5096783;28;22164;-82
2022/04/12 01:52:15;;;;;;;10.00;9.00;;;5.90;99.90;;;;;;5098497;28;20215;-82
2022/04/12 01:54:42;;;;;;;9.37;8.57;;;5.90;99.90;;;;;;5091060;28;20280;-81
2022/04/12 01:57:09;;;;;;;9.00;8.20;;;5.80;99.90;;;;;;5098434;28;20189;-81
2022/04/12 01:59:37;;;;;;;9.23;8.43;;;5.80;99.90;;;;;;5086515;28;20201;-80
2022/04/12 02:02:05;;;;;;;10.53;9.37;;;5.70;99.90;;;;;;5097726;28;20272;-81
2022/04/12 02:04:32;;;;;;;9.87;8.87;;;5.70;99.90;;;;;;5095091;28;20218;-82
2022/04/12 02:06:59;;;;;;;8.70;7.90;;;5.60;99.90;;;;;;5095038;28;20209;-81
2022/04/12 02:09:26;;;;;;;8.87;8.07;;;5.60;99.90;;;;;;5098279;28;20267;-82
2022/04/12 02:11:55;;;;;;;8.60;7.90;;;5.60;99.90;;;;;;5107804;28;20253;-82
2022/04/12 02:14:22;;;;;;;9.67;8.63;;;5.50;99.90;;;;;;5098190;28;20297;-81
2022/04/12 02:16:51;;;;;;;8.97;8.07;;;5.50;99.90;;;;;;5098394;28;20240;-82
2022/04/12 02:19:18;;;;;;;9.37;8.43;;;5.40;99.90;;;;;;5098297;28;20202;-80
2022/04/12 02:21:45;;;;;;;9.90;9.00;;;5.40;99.90;;;;;;5097230;28;20214;-80
2022/04/12 02:24:12;;;;;;;9.97;8.63;;;5.30;99.90;;;;;;5097255;28;20281;-81
2022/04/12 02:26:39;;;;;;;9.87;8.97;;;5.30;99.90;;;;;;5096000;28;20277;-81
2022/04/12 02:29:06;;;;;;;10.10;9.20;;;5.20;99.90;;;;;;5092579;28;20190;-84
2022/04/12 02:31:33;;;;;;;9.53;8.57;;;5.20;99.90;;;;;;5096209;28;20218;-80
2022/04/12 02:34:02;;;;;;;9.17;8.37;;;5.10;99.90;;;;;;5096674;28;20200;-81
2022/04/12 02:36:29;;;;;;;8.50;7.80;;;5.10;99.90;;;;;;5096333;28;20208;-82
2022/04/12 02:38:56;;;;;;;9.00;8.20;;;5.10;99.90;;;;;;5092399;28;20197;-81
2022/04/12 02:41:23;;;;;;;9.13;8.40;;;5.00;99.90;;;;;;5095283;28;20218;-85
2022/04/12 02:43:51;;;;;;;10.03;9.10;;;5.00;99.90;;;;;;5112845;28;20266;-86
2022/04/12 02:46:18;;;;;;;9.43;8.53;;;4.90;99.90;;;;;;5089034;28;20731;-84
2022/04/12 02:48:45;;;;;;;9.67;8.80;;;4.90;99.90;;;;;;5097049;28;20239;-83
2022/04/12 02:51:14;;;;;;;9.17;8.43;;;4.90;99.90;;;;;;5097722;28;20286;-85
2022/04/12 02:53:44;;;;;;;10.33;9.13;;;4.80;99.90;;;;;;5093044;28;20241;-85
2022/04/12 02:56:12;;;;;;;10.10;9.03;;;4.80;99.90;;;;;;5114789;28;20193;-83
2022/04/12 02:58:39;;;;;;;9.93;8.93;;;4.80;99.90;;;;;;5097784;28;20202;-83
2022/04/12 03:01:06;;;;;;;10.23;9.53;;;4.70;99.90;;;;;;5096081;28;20214;-83
2022/04/12 03:03:34;;;;;;;10.70;9.80;;;4.70;99.90;;;;;;5093587;28;20190;-85
2022/04/12 03:06:01;;;;;;;10.40;9.60;;;4.70;99.90;;;;;;5095103;28;20719;-85
2022/04/12 03:08:29;;;;;;;10.57;9.60;;;4.60;99.90;;;;;;5098814;28;20190;-85
2022/04/12 03:10:56;;;;;;;11.20;10.13;;;4.60;99.90;;;;;;5090710;28;20225;-85
2022/04/12 03:13:23;;;;;;;9.90;9.00;;;4.50;99.90;;;;;;5098916;28;20208;-81
2022/04/12 03:15:51;;;;;;;10.07;9.17;;;4.50;99.90;;;;;;5100488;28;20209;-85
2022/04/12 03:18:19;;;;;;;11.00;10.10;;;4.40;99.90;;;;;;5093120;28;20345;-87
2022/04/12 03:20:48;;;;;;;10.87;10.07;;;4.30;99.90;;;;;;5094483;28;20206;-84
2022/04/12 03:23:16;;;;;;;11.20;10.40;;;4.40;99.90;;;;;;5097791;28;20200;-85
2022/04/12 03:25:44;;;;;;;10.90;10.00;;;4.40;99.90;;;;;;5090410;28;20220;-84
2022/04/12 03:28:11;;;;;;;9.97;9.17;;;4.30;99.90;;;;;;5100199;28;20220;-83
2022/04/12 03:30:40;;;;;;;10.30;9.50;;;4.30;99.90;;;;;;5096829;28;20217;-84
2022/04/12 03:33:10;;;;;;;10.90;10.07;;;4.30;99.90;;;;;;5098221;28;20209;-83
2022/04/12 03:35:40;;;;;;;11.07;9.97;;;4.30;99.90;;;;;;5081357;28;20208;-85
2022/04/12 03:38:08;;;;;;;10.17;9.37;;;4.40;99.90;;;;;;5086050;28;20200;-86
2022/04/12 03:40:35;;;;;;;10.60;9.80;;;4.30;99.90;;;;;;5097724;28;20232;-84
2022/04/12 03:43:05;;;;;;;11.17;9.83;;;4.30;99.90;;;;;;5097937;28;20193;-83
2022/04/12 03:45:34;;;;;;;11.60;10.50;;;4.30;99.90;;;;;;5097496;28;20548;-86
2022/04/12 03:48:01;;;;;;;11.23;10.23;;;4.40;99.90;;;;;;5092170;28;20198;-85
2022/04/12 03:50:31;;;;;;;10.40;9.57;;;4.30;99.90;;;;;;5095505;28;20209;-83
2022/04/12 03:52:58;;;;;;;10.33;9.53;;;4.30;99.90;;;;;;5093385;28;20220;-83
2022/04/12 03:55:31;;;;;;;11.13;10.03;;;4.30;99.90;;;;;;5098466;28;20231;-84
2022/04/12 03:57:59;;;;;;;12.33;10.67;;;4.30;99.90;;;;;;5095619;28;20584;-83
2022/04/12 04:00:28;;;;;;;11.10;10.20;;;4.20;99.90;;;;;;5098384;28;20460;-85
2022/04/12 04:02:56;;;;;;;10.90;10.00;;;4.10;99.90;;;;;;5100761;28;20201;-87
2022/04/12 04:05:24;;;;;;;11.23;10.27;;;4.10;99.90;;;;;;5111366;28;20575;-86
2022/04/12 04:07:51;;;;;;;12.63;11.47;;;4.10;99.90;;;;;;5098986;28;20546;-85
2022/04/12 04:10:19;;;;;;;11.47;10.37;;;4.00;99.90;;;;;;5101426;28;20199;-81
2022/04/12 04:12:47;;;;;;;11.80;10.33;;;4.00;99.90;;;;;;5096898;28;20216;-85
2022/04/12 04:15:14;;;;;;;12.27;11.10;;;4.00;99.90;;;;;;5104132;28;20202;-87
2022/04/12 04:17:44;;;;;;;11.90;10.80;;;4.10;99.90;;;;;;5098234;28;20466;-87
2022/04/12 04:20:13;;;;;;;12.77;11.57;;;4.10;99.90;;;;;;5098903;28;20194;-88
2022/04/12 04:22:41;;;;;;;11.23;10.13;;;4.10;99.90;;;;;;5105616;28;20237;-86
2022/04/12 04:25:09;;;;;;;11.13;10.20;;;4.10;99.90;;;;;;5100307;28;20193;-86
2022/04/12 04:27:37;;;;;;;11.60;10.60;;;4.10;99.90;;;;;;5094104;28;20204;-85
2022/04/12 04:30:07;;;;;;;10.97;9.97;;;4.00;99.90;;;;;;5101423;28;20197;-85
2022/04/12 04:32:35;;;;;;;11.37;10.37;;;4.00;99.90;;;;;;5100465;28;20293;-86
2022/04/12 04:35:05;;;;;;;13.43;11.13;;;4.00;99.90;;;;;;5098653;28;20197;-86
2022/04/12 04:37:32;;;;;;;11.43;10.30;;;4.10;99.90;;;;;;5098974;28;20248;-88
2022/04/12 04:39:59;;;;;;;11.80;10.70;;;4.10;99.90;;;;;;5098845;28;20263;-83
2022/04/12 04:42:27;;;;;;;13.70;12.10;;;4.10;99.90;;;;;;5089820;28;20223;-79
2022/04/12 04:44:54;;;;;;;18.60;13.43;;;4.00;99.90;;;;;;5096387;28;20198;-83
2022/04/12 04:47:21;;;;;;;16.27;12.87;;;4.00;99.90;;;;;;5091552;28;20673;-80
2022/04/12 04:49:51;;;;;;;15.80;13.07;;;4.00;99.90;;;;;;5081705;28;20214;-81
2022/04/12 04:52:20;;;;;;;13.37;12.07;;;4.10;99.90;;;;;;5087580;28;20226;-80
2022/04/12 04:54:47;;;;;;;16.07;13.20;;;4.00;99.90;;;;;;5084620;28;20201;-80
2022/04/12 04:57:14;;;;;;;19.73;13.57;;;4.10;99.90;;;;;;5087017;28;20539;-80
2022/04/12 04:59:41;;;;;;;15.23;12.17;;;4.10;99.90;;;;;;5091753;28;20198;-80
2022/04/12 05:02:08;;;;;;;14.83;13.20;;;4.10;99.90;;;;;;5092218;28;20305;-80
2022/04/12 05:04:35;;;;;;;15.47;13.60;;;4.10;99.90;;;;;;5090270;28;20559;-80
2022/04/12 05:07:02;;;;;;;13.93;12.50;;;4.20;99.90;;;;;;5089828;28;20606;-80
2022/04/12 05:09:30;;;;;;;13.43;12.00;;;4.20;99.90;;;;;;5093259;28;20285;-80
2022/04/12 05:11:57;;;;;;;12.53;11.43;;;4.30;99.90;;;;;;5085791;28;20225;-81
2022/04/12 05:14:24;;;;;;;12.93;11.70;;;4.30;99.90;;;;;;5093551;28;20233;-81
2022/04/12 05:16:51;;;;;;;12.43;11.23;;;4.40;99.90;;;;;;5093238;28;20306;-80
2022/04/12 05:19:18;;;;;;;12.47;11.27;;;4.40;99.90;;;;;;5088781;28;20235;-81
2022/04/12 05:21:45;;;;;;;13.63;11.13;;;4.50;99.90;;;;;;5089200;28;20210;-80
2022/04/12 05:24:12;;;;;;;13.00;11.80;;;4.50;99.90;;;;;;5093142;28;20197;-81
2022/04/12 05:26:40;;;;;;;13.00;11.67;;;4.60;99.90;;;;;;5093690;28;20247;-81
2022/04/12 05:29:07;;;;;;;13.23;12.00;;;4.70;99.90;;;;;;5093295;28;20285;-80
2022/04/12 05:31:34;;;;;;;12.10;10.93;;;4.90;99.90;;;;;;5091027;28;20269;-80
2022/04/12 05:34:01;;;;;;;12.27;10.93;;;5.10;99.90;;;;;;5092691;28;20286;-80
2022/04/12 05:36:28;;;;;;;12.63;11.10;;;5.50;99.90;;;;;;5083106;28;20200;-80
2022/04/12 05:38:56;;;;;;;12.80;9.80;;;5.90;99.90;;;;;;5085757;28;20259;-80
2022/04/12 05:41:23;;;;;;;10.87;8.80;;;6.30;99.90;;;;;;5090689;28;20221;-80
2022/04/12 05:43:52;;;;;;;10.37;9.37;;;6.70;99.90;;;;;;5088881;28;20280;-81
2022/04/12 05:46:19;;;;;;;11.10;10.13;;;6.90;99.90;;;;;;5093862;28;20623;-80
2022/04/12 05:48:46;;;;;;;9.93;9.13;;;7.10;99.90;;;;;;5087560;28;20199;-80
2022/04/12 05:51:13;;;;;;;10.30;9.50;;;7.50;99.90;;;;;;5092040;28;20643;-81
2022/04/12 05:53:40;;;;;;;11.60;10.50;;;7.80;99.90;;;;;;5088722;28;20736;-79
2022/04/12 05:56:07;;;;;;;11.03;10.17;;;8.10;99.90;;;;;;5089319;28;20661;-81
2022/04/12 05:58:35;;;;;;;11.17;10.00;;;8.30;99.90;;;;;;5093140;28;20291;-80
2022/04/12 06:01:04;;;;;;;11.10;10.23;;;8.40;99.90;;;;;;5093289;28;20221;-80
2022/04/12 06:03:31;;;;;;;11.63;10.47;;;8.70;99.90;;;;;;5092468;28;20205;-80
2022/04/12 06:05:58;;;;;;;10.83;9.93;;;8.90;99.90;;;;;;5087712;28;20567;-80
2022/04/12 06:08:25;;;;;;;9.10;8.20;;;9.00;99.90;;;;;;5088526;28;20277;-80
2022/04/12 06:10:52;;;;;;;10.13;9.30;;;9.10;99.90;;;;;;5086357;28;20232;-80
2022/04/12 06:13:19;;;;;;;10.03;9.00;;;9.30;99.90;;;;;;5089603;28;20206;-81
2022/04/12 06:15:46;;;;;;;6.50;4.40;;;9.40;99.90;;;;;;5087648;28;20281;-80
2022/04/12 06:18:14;;;;;;;7.90;6.13;;;9.30;99.90;;;;;;5092382;28;20202;-80
2022/04/12 06:20:42;;;;;;;8.17;4.97;;;9.30;99.90;;;;;;5090964;28;20249;-80
2022/04/12 06:23:09;;;;;;;8.70;6.73;;;9.40;99.90;;;;;;5088333;28;20191;-80
2022/04/12 06:25:36;;;;;;;7.80;7.00;;;9.50;99.90;;;;;;5088744;28;20195;-81
2022/04/12 06:28:04;;;;;;;8.27;7.47;;;9.60;99.90;;;;;;5092221;28;20255;-81
2022/04/12 06:30:31;;;;;;;11.17;6.50;;;9.80;99.90;;;;;;5086894;28;20652;-79
2022/04/12 06:32:58;;;;;;;9.27;8.37;;;9.90;99.90;;;;;;5085435;28;20222;-81
2022/04/12 06:35:29;;;;;;;6.27;5.30;;;10.10;99.90;;;;;;5090604;28;20292;-81
2022/04/12 06:37:57;;;;;;;8.20;6.57;;;10.30;99.90;;;;;;5092700;28;20682;-81
2022/04/12 06:40:25;;;;;;;8.17;4.60;;;10.50;99.90;;;;;;5091704;28;20197;-81
2022/04/12 06:42:53;;;;;;;7.60;5.30;;;10.60;99.90;;;;;;5091468;28;20198;-81
2022/04/12 06:45:20;;;;;;;5.13;4.47;;;10.80;99.90;;;;;;5075160;28;20717;-81
2022/04/12 06:47:54;;;;;;;6.23;4.43;;;10.90;99.90;;;;;;5095013;28;20629;-81
2022/04/12 06:50:22;;;;;;;6.43;4.67;;;11.00;99.90;;;;;;5090460;28;20217;-80
2022/04/12 06:52:51;;;;;;;5.40;4.50;;;11.10;99.90;;;;;;5091156;28;20272;-81
2022/04/12 06:55:17;;;;;;;6.80;4.10;;;11.30;99.90;;;;;;5083307;28;20558;-80
2022/04/12 06:57:45;;;;;;;4.97;4.50;;;11.50;99.90;;;;;;5091170;28;20295;-80
2022/04/12 07:00:12;;;;;;;5.60;4.40;;;11.80;99.90;;;;;;5088692;28;20577;-80
2022/04/12 07:02:39;;;;;;;6.40;5.90;;;12.10;99.90;;;;;;5086908;28;20263;-80
2022/04/12 07:05:08;;;;;;;6.57;5.43;;;12.30;99.90;;;;;;5087117;28;20203;-81
2022/04/12 07:07:36;;;;;;;5.00;4.37;;;12.60;99.90;;;;;;5090996;28;20208;-80
2022/04/12 07:10:05;;;;;;;6.30;5.50;;;12.80;99.90;;;;;;5091871;28;20250;-84
2022/04/12 07:12:33;;;;;;;5.80;5.20;;;12.90;99.90;;;;;;5095608;28;20224;-83
2022/04/12 07:15:00;;;;;;;7.47;6.10;;;13.10;99.90;;;;;;5098348;28;20194;-83
2022/04/12 07:17:27;;;;;;;5.40;4.90;;;13.30;99.90;;;;;;5094242;28;20208;-81
2022/04/12 07:19:54;;;;;;;6.00;5.10;;;13.30;99.90;;;;;;5090767;28;20647;-81
2022/04/12 07:22:21;;;;;;;6.33;5.17;;;13.70;99.90;;;;;;5086223;28;20221;-81
2022/04/12 07:24:48;;;;;;;6.10;5.37;;;14.10;99.90;;;;;;5090840;28;20206;-81
2022/04/12 07:27:16;;;;;;;6.33;4.97;;;14.40;99.90;;;;;;5082377;28;20291;-81
2022/04/12 07:29:43;;;;;;;6.73;5.20;;;14.60;99.90;;;;;;5091864;28;20300;-81
2022/04/12 07:32:10;;;;;;;5.20;4.43;;;14.80;99.90;;;;;;5091429;28;20309;-82
2022/04/12 07:34:37;;;;;;;6.13;4.90;;;15.00;99.90;;;;;;5096683;28;20205;-81
2022/04/12 07:37:04;;;;;;;6.07;5.20;;;15.10;99.90;;;;;;5083989;28;20219;-81
2022/04/12 07:39:31;;;;;;;5.97;4.70;;;15.40;99.90;;;;;;5090635;28;20293;-81
2022/04/12 07:41:59;;;;;;;6.40;5.73;;;15.60;99.90;;;;;;5091115;28;20246;-80
2022/04/12 07:44:27;;;;;;;6.10;4.93;;;15.50;99.90;;;;;;5090889;28;20201;-81
2022/04/12 07:46:54;;;;;;;6.30;5.70;;;15.40;99.90;;;;;;5085490;28;20210;-81
2022/04/12 07:49:21;;;;;;;6.17;5.20;;;15.50;99.90;;;;;;5092497;28;20269;-82
2022/04/12 07:51:48;;;;;;;6.53;5.93;;;15.80;99.90;;;;;;5090529;28;20716;-79
2022/04/12 07:54:15;;;;;;;7.13;5.70;;;16.00;99.90;;;;;;5092263;28;20266;-80
2022/04/12 07:56:42;;;;;;;8.47;5.70;;;16.00;99.90;;;;;;5091360;28;20193;-79
2022/04/12 07:59:10;;;;;;;6.67;5.37;;;16.10;99.90;;;;;;5089225;28;20249;-80
2022/04/12 08:01:38;;;;;;;6.07;4.80;;;16.30;99.90;;;;;;5075476;28;20213;-82
2022/04/12 08:04:06;;;;;;;6.17;5.13;;;16.60;99.90;;;;;;5091780;28;20190;-79
2022/04/12 08:06:33;;;;;;;5.60;4.80;;;16.70;99.90;;;;;;5101393;28;20252;-79
2022/04/12 08:09:00;;;;;;;7.30;5.07;;;17.10;99.90;;;;;;5085516;28;20209;-80
2022/04/12 08:11:27;;;;;;;7.03;5.87;;;17.30;99.90;;;;;;5089670;28;20778;-79
2022/04/12 08:13:54;;;;;;;6.43;5.20;;;17.50;99.90;;;;;;5089408;28;20578;-80
2022/04/12 08:16:21;;;;;;;6.17;5.27;;;17.60;99.90;;;;;;5089777;28;20193;-79
2022/04/12 08:18:49;;;;;;;7.87;6.03;;;17.70;99.90;;;;;;5091436;28;20202;-80
2022/04/12 08:21:31;;;;;;;8.37;7.57;;;17.60;99.90;;;;;;5090912;28;20321;-79
2022/04/12 08:23:58;;;;;;;6.73;4.97;;;17.60;99.90;;;;;;5091502;28;20201;-80
2022/04/12 08:26:25;;;;;;;6.80;5.90;;;17.50;99.90;;;;;;5089345;28;20202;-79
2022/04/12 08:28:52;;;;;;;7.67;6.97;;;17.60;99.90;;;;;;5090735;28;20209;-79
2022/04/12 08:31:19;;;;;;;6.77;6.13;;;17.70;99.90;;;;;;5093073;28;20228;-80
2022/04/12 08:33:46;;;;;;;6.63;5.20;;;17.90;99.90;;;;;;5088031;28;20292;-80
2022/04/12 08:36:16;;;;;;;8.10;7.30;;;17.80;99.90;;;;;;5094679;28;20793;-80
2022/04/12 08:38:44;;;;;;;5.60;5.00;;;17.80;99.90;;;;;;5094755;28;20290;-80
2022/04/12 08:41:13;;;;;;;7.03;6.33;;;18.00;99.90;;;;;;5094498;28;20225;-79
2022/04/12 08:43:41;;;;;;;7.00;5.97;;;18.00;99.90;;;;;;5094689;28;20187;-79
2022/04/12 08:46:09;;;;;;;5.97;5.00;;;18.20;99.90;;;;;;5092238;28;20230;-80
2022/04/12 08:48:37;;;;;;;8.60;7.80;;;18.10;99.90;;;;;;5092912;28;20225;-80
2022/04/12 08:51:04;;;;;;;8.07;7.00;;;17.90;99.90;;;;;;5081686;28;20275;-79
2022/04/12 08:53:32;;;;;;;7.33;5.50;;;18.00;99.90;;;;;;5094382;28;20246;-80
2022/04/12 08:56:00;;;;;;;7.47;6.77;;;18.20;99.90;;;;;;5094784;28;20252;-80
2022/04/12 08:58:28;;;;;;;11.30;7.33;;;18.30;99.90;;;;;;5094459;28;20381;-80
2022/04/12 09:00:56;;;;;;;9.33;8.53;;;18.50;99.90;;;;;;5090430;28;20220;-81
2022/04/12 09:03:23;;;;;;;9.97;9.17;;;18.50;99.90;;;;;;5093296;28;20252;-83
2022/04/12 09:05:52;;;;;;;5.57;4.13;;;18.90;99.90;;;;;;5092081;28;20197;-83
2022/04/12 09:08:27;;;;;;;10.17;9.37;;;19.30;99.90;;;;;;5092670;28;20194;-81
2022/04/12 09:11:00;;;;;;;10.20;9.40;;;19.50;99.90;;;;;;5088356;28;20715;-81
2022/04/12 09:13:29;;;;;;;5.73;5.10;;;19.40;99.90;;;;;;5094069;28;20221;-81
2022/04/12 09:15:56;;;;;;;6.20;5.60;;;19.50;99.90;;;;;;5094233;28;20198;-80
2022/04/12 09:18:34;;;;;;;5.77;5.13;;;19.30;99.90;;;;;;5093934;28;20255;-81
2022/04/12 09:21:15;;;;;;;5.03;4.53;;;19.30;99.90;;;;;;5095374;28;20217;-82
2022/04/12 09:23:47;;;;;;;6.67;6.07;;;19.50;99.90;;;;;;5081837;28;20190;-81
2022/04/12 09:26:23;;;;;;;6.37;4.90;;;19.50;99.90;;;;;;5097573;28;20198;-81
2022/04/12 09:28:52;;;;;;;10.00;9.27;;;19.70;99.90;;;;;;5094120;28;20240;-81
2022/04/12 09:31:20;;;;;;;7.20;6.50;;;19.70;99.90;;;;;;5095858;28;20678;-81
2022/04/12 09:33:52;;;;;;;9.70;8.90;;;19.80;99.90;;;;;;5096278;28;20209;-81
2022/04/12 09:36:20;;;;;;;10.00;9.23;;;19.80;99.90;;;;;;5096341;28;20205;-81
2022/04/12 09:38:55;;;;;;;9.33;8.63;;;19.60;99.90;;;;;;5093284;28;20632;-82
2022/04/12 09:41:25;;;;;;;10.67;9.87;;;19.70;99.90;;;;;;5090064;28;20221;-81
2022/04/12 09:43:57;;;;;;;10.87;8.80;;;19.80;99.90;;;;;;5091573;28;20199;-81
2022/04/12 09:46:26;;;;;;;9.30;8.60;;;19.70;99.90;;;;;;5093564;28;20206;-81
2022/04/12 09:48:54;;;;;;;9.90;9.00;;;19.80;99.90;;;;;;5090795;28;20194;-83
2022/04/12 09:51:23;;;;;;;9.83;9.03;;;19.70;99.90;;;;;;5095518;28;20744;-81
2022/04/12 09:53:50;;;;;;;10.20;9.20;;;19.70;99.90;;;;;;5086144;28;20225;-81
2022/04/12 09:56:20;;;;;;;10.40;9.47;;;19.70;99.90;;;;;;5094936;28;20857;-81
2022/04/12 09:58:50;;;;;;;9.83;9.03;;;19.70;99.90;;;;;;5093200;28;20197;-81
2022/04/12 10:01:18;;;;;;;9.80;8.93;;;19.80;99.90;;;;;;5088750;28;20216;-81
2022/04/12 10:03:47;;;;;;;10.37;9.23;;;19.80;99.90;;;;;;5091537;28;20196;-81
2022/04/12 10:06:15;;;;;;;9.20;8.30;;;19.80;99.90;;;;;;5089458;28;20197;-81
2022/04/12 10:08:43;;;;;;;10.00;9.10;;;19.90;99.90;;;;;;5092772;28;20193;-81
2022/04/12 10:11:13;;;;;;;9.73;8.77;;;20.10;99.90;;;;;;5092043;28;20240;-81
2022/04/12 10:13:40;;;;;;;9.23;8.53;;;20.30;99.50;;;;;;5077328;28;20219;-81
2022/04/12 10:16:10;;;;;;;9.23;8.43;;;20.00;99.20;;;;;;5091427;28;20271;-81
2022/04/12 10:18:39;;;;;;;9.20;8.50;;;20.10;98.60;;;;;;5084310;28;20242;-81
2022/04/12 10:21:06;;;;;;;8.53;7.80;;;20.00;98.10;;;;;;5090373;28;20330;-81
2022/04/12 10:23:34;;;;;;;8.60;7.90;;;20.00;99.90;;;;;;5084945;28;20196;-81
2022/04/12 10:26:02;;;;;;;8.33;7.63;;;20.20;99.90;;;;;;5093161;28;20205;-81
2022/04/12 10:28:31;;;;;;;9.00;8.30;;;20.40;99.30;;;;;;5092905;28;20259;-81
2022/04/12 10:31:03;;;;;;;8.80;8.10;;;20.50;99.80;;;;;;5092298;28;20233;-81
2022/04/12 10:33:33;;;;;;;8.60;7.70;;;20.60;99.80;;;;;;5089608;28;20256;-80
2022/04/12 10:36:02;;;;;;;7.83;7.20;;;20.80;99.90;;;;;;5090669;28;20684;-81
2022/04/12 10:38:40;;;;;;;8.13;7.30;;;20.90;99.00;;;;;;5089856;28;20296;-81
2022/04/12 10:41:16;;;;;;;8.03;7.43;;;21.00;99.30;;;;;;5087885;28;20308;-81
2022/04/12 10:43:43;;;;;;;7.80;7.10;;;21.10;99.50;;;;;;5080730;28;20194;-81
2022/04/12 10:46:12;;;;;;;7.70;7.10;;;21.00;99.20;;;;;;5086207;28;20284;-81
2022/04/12 10:48:41;;;;;;;7.93;7.23;;;21.00;98.60;;;;;;5106230;28;20673;-81
2022/04/12 10:51:08;;;;;;;8.00;7.30;;;20.80;98.10;;;;;;5091089;28;20223;-80
2022/04/12 10:53:55;;;;;;;7.40;6.80;;;20.70;99.10;;;;;;5087038;28;20222;-81
2022/04/12 10:56:26;;;;;;;7.77;7.17;;;20.70;99.90;;;;;;5086386;28;20206;-81
2022/04/12 10:58:53;;;;;;;8.20;7.40;;;20.80;99.70;;;;;;5089568;28;20298;-80
2022/04/12 11:01:31;;;;;;;8.13;7.40;;;20.90;99.90;;;;;;5090353;28;20210;-80
2022/04/12 11:04:02;;;;;;;8.37;7.50;;;20.80;99.90;;;;;;5086063;28;20213;-81
2022/04/12 11:06:30;;;;;;;8.43;7.57;;;20.80;99.90;;;;;;5092724;28;20204;-81
2022/04/12 11:09:09;;;;;;;7.73;7.10;;;20.80;99.90;;;;;;5085752;28;20244;-80
2022/04/12 11:11:40;;;;;;;8.10;7.40;;;20.90;99.90;;;;;;5091382;28;20693;-80
2022/04/12 11:14:25;;;;;;;7.57;6.97;;;20.90;99.90;;;;;;5092081;28;20230;-81
2022/04/12 11:16:56;;;;;;;8.13;7.00;;;20.90;99.20;;;;;;5086043;28;20194;-81
2022/04/12 11:19:25;;;;;;;7.40;6.90;;;20.90;99.70;;;;;;5092199;28;20281;-81
2022/04/12 11:22:01;;;;;;;7.63;7.00;;;21.00;99.60;;;;;;5094543;28;20218;-82
2022/04/12 11:24:28;;;;;;;7.60;7.00;;;21.10;98.80;;;;;;5090442;28;20284;-80
2022/04/12 11:27:14;;;;;;;7.57;7.00;;;21.00;98.80;;;;;;5086309;28;20280;-81
2022/04/12 11:29:42;;;;;;;7.73;7.03;;;21.20;98.20;;;;;;5080305;28;20198;-80
2022/04/12 11:32:11;;;;;;;7.93;7.23;;;21.20;98.20;;;;;;5091917;28;20222;-80
2022/04/12 11:34:41;;;;;;;7.33;6.73;;;21.30;99.20;;;;;;5082749;28;20224;-80
2022/04/12 11:37:09;;;;;;;7.83;7.23;;;21.50;97.80;;;;;;5091567;28;20205;-80
2022/04/12 11:39:39;;;;;;;7.20;6.60;;;21.50;97.00;;;;;;5091037;28;20666;-80
2022/04/12 11:42:09;;;;;;;8.03;7.40;;;21.60;96.60;;;;;;5088974;28;20304;-80
2022/04/12 11:44:36;;;;;;;7.73;7.13;;;21.60;96.80;;;;;;5091342;28;20297;-81
2022/04/12 11:47:05;;;;;;;6.87;6.27;;;21.70;96.60;;;;;;5083576;28;20566;-80
2022/04/12 11:49:36;;;;;;;7.30;6.80;;;21.70;96.90;;;;;;5081822;28;20218;-81
2022/04/12 11:52:06;;;;;;;8.43;7.70;;;21.80;95.90;;;;;;5087561;28;20218;-80
2022/04/12 11:54:35;;;;;;;7.80;7.00;;;21.80;95.90;;;;;;5088942;28;20213;-81
2022/04/12 11:57:04;;;;;;;7.70;7.10;;;22.00;95.90;;;;;;5105357;28;20202;-80
2022/04/12 11:59:33;;;;;;;7.80;7.20;;;22.10;95.50;;;;;;5090368;28;20417;-80
2022/04/12 12:02:02;;;;;;;7.67;6.97;;;22.20;96.60;;;;;;5087674;28;20213;-81
2022/04/12 12:04:31;;;;;;;7.90;7.10;;;22.30;95.20;;;;;;5093471;28;20197;-80
2022/04/12 12:07:00;;;;;;;7.60;7.00;;;22.50;95.10;;;;;;5096013;28;20193;-80
2022/04/12 12:09:29;;;;;;;8.27;6.87;;;22.70;94.40;;;;;;5096547;28;20193;-80
2022/04/12 12:12:06;;;;;;;7.43;6.83;;;22.80;95.10;;;;;;5092395;28;20237;-81
2022/04/12 12:14:35;;;;;;;7.30;6.60;;;23.00;95.00;;;;;;5092231;28;20296;-81
2022/04/12 12:17:08;;;;;;;7.10;6.60;;;22.90;93.00;;;;;;5093125;28;20243;-81
2022/04/12 12:19:38;;;;;;;6.80;6.30;;;23.00;93.50;;;;;;5095135;28;20301;-80
2022/04/12 12:22:07;;;;;;;6.40;6.00;;;23.30;94.50;;;;;;5091403;28;20789;-81
2022/04/12 12:24:37;;;;;;;7.37;6.80;;;23.30;93.60;;;;;;5094876;28;20285;-81
2022/04/12 12:27:06;;;;;;;7.23;6.67;;;23.40;93.60;;;;;;5095177;28;20192;-80
2022/04/12 12:29:38;;;;;;;7.50;6.90;;;23.40;92.60;;;;;;5094593;28;20209;-80
2022/04/12 12:32:07;;;;;;;7.73;7.13;;;23.40;93.40;;;;;;5094417;28;20308;-80
2022/04/12 12:34:35;;;;;;;7.50;7.00;;;23.50;92.80;;;;;;5107167;28;20226;-80
2022/04/12 12:37:10;;;;;;;7.20;6.60;;;23.40;92.40;;;;;;5091700;28;20625;-81
2022/04/12 12:39:40;;;;;;;7.00;6.50;;;23.60;94.00;;;;;;5086024;28;20711;-80
2022/04/12 12:42:08;;;;;;;7.27;6.57;;;23.50;92.40;;;;;;5083351;28;20578;-81
2022/04/12 12:44:36;;;;;;;6.30;5.90;;;23.50;92.90;;;;;;5089725;28;20194;-80
2022/04/12 12:47:04;;;;;;;7.43;6.83;;;23.50;92.50;;;;;;5087737;28;20198;-80
2022/04/12 12:49:36;;;;;;;6.90;6.40;;;23.60;93.00;;;;;;5092433;28;20237;-80
2022/04/12 12:52:05;;;;;;;7.20;6.60;;;23.60;93.70;;;;;;5093202;28;20237;-80
2022/04/12 12:54:32;;;;;;;7.23;6.67;;;23.80;93.80;;;;;;5093720;28;20218;-80
2022/04/12 12:57:03;;;;;;;6.70;6.20;;;24.00;92.90;;;;;;5085374;28;20284;-80